createdAt,value
2022-09-25T00:02:53.247Z,13.10
2022-09-25T00:06:04.573Z,12.90
2022-09-25T00:09:10.190Z,13.10
2022-09-25T00:12:13.732Z,13.00
2022-09-25T00:15:16.835Z,13.10
2022-09-25T00:18:41.469Z,13.10
2022-09-25T00:21:45.352Z,13.10
2022-09-25T00:24:48.642Z,13.10
2022-09-25T00:27:54.632Z,13.20
2022-09-25T00:30:57.875Z,13.20
2022-09-25T00:34:02.783Z,13.20
2022-09-25T00:37:07.961Z,13.20
2022-09-25T00:40:12.109Z,13.30
2022-09-25T00:43:16.165Z,13.30
2022-09-25T00:46:23.834Z,13.30
2022-09-25T00:49:27.771Z,13.30
2022-09-25T00:52:32.928Z,13.20
2022-09-25T00:55:38.754Z,13.20
2022-09-25T00:58:42.300Z,13.20
2022-09-25T01:01:46.068Z,13.10
2022-09-25T01:04:50.009Z,13.10
2022-09-25T01:07:57.274Z,13.10
2022-09-25T01:11:00.495Z,13.10
2022-09-25T01:14:07.029Z,13.10
2022-09-25T01:17:21.296Z,13.10
2022-09-25T01:20:41.692Z,13.00
2022-09-25T01:24:26.639Z,13.10
2022-09-25T01:27:52.619Z,13.00
2022-09-25T01:31:02.939Z,12.90
2022-09-25T01:34:15.025Z,12.80
2022-09-25T01:37:23.531Z,12.80
2022-09-25T01:40:33.575Z,12.90
2022-09-25T01:43:39.748Z,13.00
2022-09-25T01:46:47.726Z,13.00
2022-09-25T01:49:54.281Z,13.10
2022-09-25T01:53:03.303Z,13.10
2022-09-25T01:56:11.917Z,13.10
2022-09-25T01:59:20.058Z,13.10
2022-09-25T02:02:28.277Z,13.20
2022-09-25T02:05:35.009Z,13.10
2022-09-25T02:08:44.129Z,13.20
2022-09-25T02:11:52.334Z,13.10
2022-09-25T02:14:57.923Z,13.10
2022-09-25T02:18:22.342Z,13.10
2022-09-25T02:21:35.026Z,13.10
2022-09-25T02:24:47.234Z,13.00
2022-09-25T02:27:50.378Z,12.90
2022-09-25T02:30:55.870Z,12.90
2022-09-25T02:34:00.434Z,12.90
2022-09-25T02:37:03.531Z,12.90
2022-09-25T02:40:07.594Z,12.90
2022-09-25T02:43:22.867Z,12.90
2022-09-25T02:46:34.666Z,13.00
2022-09-25T02:49:48.953Z,13.10
2022-09-25T02:53:05.583Z,13.20
2022-09-25T02:56:14.481Z,13.20
2022-09-25T02:59:22.552Z,13.30
2022-09-25T03:02:28.131Z,13.30
2022-09-25T03:05:33.109Z,13.40
2022-09-25T03:08:39.523Z,13.40
2022-09-25T03:11:43.832Z,13.40
2022-09-25T03:14:47.010Z,13.40
2022-09-25T03:17:51.208Z,13.40
2022-09-25T03:20:55.909Z,13.30
2022-09-25T03:23:58.983Z,13.40
2022-09-25T03:27:02.064Z,13.30
2022-09-25T03:30:06.203Z,13.20
2022-09-25T03:33:10.483Z,13.20
2022-09-25T03:36:18.485Z,13.20
2022-09-25T03:39:21.782Z,13.20
2022-09-25T03:42:28.177Z,13.30
2022-09-25T03:45:31.254Z,13.30
2022-09-25T03:48:34.390Z,13.30
2022-09-25T03:51:39.108Z,13.40
2022-09-25T03:54:42.546Z,13.40
2022-09-25T03:57:46.117Z,13.40
2022-09-25T04:00:49.223Z,13.40
2022-09-25T04:03:52.828Z,13.30
2022-09-25T04:06:57.310Z,13.40
2022-09-25T04:10:00.423Z,13.40
2022-09-25T04:13:04.032Z,13.40
2022-09-25T04:16:08.248Z,13.40
2022-09-25T04:19:11.786Z,13.40
2022-09-25T04:22:16.381Z,13.40
2022-09-25T04:25:24.642Z,13.50
2022-09-25T04:28:29.944Z,13.40
2022-09-25T04:31:33.557Z,13.40
2022-09-25T04:34:35.839Z,13.40
2022-09-25T04:37:40.337Z,13.30
2022-09-25T04:40:43.656Z,13.30
2022-09-25T04:43:47.013Z,13.30
2022-09-25T04:46:50.108Z,13.40
2022-09-25T04:49:53.423Z,13.40
2022-09-25T04:52:59.115Z,13.40
2022-09-25T04:56:03.470Z,13.50
2022-09-25T04:59:06.586Z,13.40
2022-09-25T05:02:09.946Z,13.40
2022-09-25T05:05:13.419Z,13.40
2022-09-25T05:08:18.218Z,13.50
2022-09-25T05:11:21.423Z,13.50
2022-09-25T05:14:24.652Z,13.40
2022-09-25T05:17:27.736Z,13.50
2022-09-25T05:20:31.053Z,13.50
2022-09-25T05:23:35.601Z,13.50
2022-09-25T05:26:38.883Z,13.50
2022-09-25T05:29:41.975Z,13.50
2022-09-25T05:32:49.939Z,13.50
2022-09-25T05:35:52.996Z,13.50
2022-09-25T05:38:57.741Z,13.50
2022-09-25T05:42:02.499Z,13.40
2022-09-25T05:45:07.664Z,13.40
2022-09-25T05:48:10.938Z,13.50
2022-09-25T05:51:14.027Z,13.50
2022-09-25T05:54:18.514Z,13.50
2022-09-25T05:57:22.536Z,13.50
2022-09-25T06:00:26.112Z,13.50
2022-09-25T06:03:29.754Z,13.60
2022-09-25T06:06:32.937Z,13.70
2022-09-25T06:09:37.646Z,13.70
2022-09-25T06:12:40.746Z,13.70
2022-09-25T06:15:43.881Z,13.70
2022-09-25T06:18:48.148Z,13.80
2022-09-25T06:21:51.225Z,13.80
2022-09-25T06:24:55.733Z,13.90
2022-09-25T06:28:00.357Z,13.90
2022-09-25T06:31:04.871Z,14.00
2022-09-25T06:34:09.794Z,14.00
2022-09-25T06:37:12.888Z,14.00
2022-09-25T06:40:17.641Z,14.00
2022-09-25T06:43:20.775Z,14.00
2022-09-25T06:46:24.039Z,14.00
2022-09-25T06:49:27.169Z,14.00
2022-09-25T06:52:30.298Z,14.00
2022-09-25T06:55:35.078Z,13.90
2022-09-25T06:58:39.173Z,13.90
2022-09-25T07:01:42.355Z,13.90
2022-09-25T07:04:44.515Z,13.90
2022-09-25T07:07:48.674Z,13.90
2022-09-25T07:10:54.593Z,13.90
2022-09-25T07:13:57.725Z,13.90
2022-09-25T07:17:00.785Z,13.90
2022-09-25T07:20:04.155Z,14.00
2022-09-25T07:23:07.238Z,14.00
2022-09-25T07:26:13.564Z,14.00
2022-09-25T07:29:17.435Z,14.10
2022-09-25T07:32:20.736Z,14.10
2022-09-25T07:35:23.952Z,14.10
2022-09-25T07:38:27.023Z,14.10
2022-09-25T07:41:31.490Z,14.00
2022-09-25T07:44:38.447Z,14.00
2022-09-25T07:47:41.783Z,14.00
2022-09-25T07:50:45.446Z,14.10
2022-09-25T07:53:48.632Z,14.10
2022-09-25T07:56:53.171Z,14.10
2022-09-25T07:59:56.241Z,14.10
2022-09-25T08:03:00.270Z,14.10
2022-09-25T08:06:05.565Z,14.10
2022-09-25T08:09:10.825Z,14.10
2022-09-25T08:12:15.505Z,14.10
2022-09-25T08:15:19.153Z,14.10
2022-09-25T08:18:22.697Z,14.10
2022-09-25T08:21:25.906Z,14.20
2022-09-25T08:24:28.994Z,14.30
2022-09-25T08:27:33.735Z,14.40
2022-09-25T08:30:38.285Z,14.40
2022-09-25T08:33:45.444Z,14.50
2022-09-25T08:36:49.877Z,14.50
2022-09-25T08:39:53.977Z,14.50
2022-09-25T08:42:59.075Z,14.60
2022-09-25T08:46:22.001Z,14.70
2022-09-25T08:49:29.758Z,14.70
2022-09-25T08:52:33.495Z,14.70
2022-09-25T08:55:57.700Z,14.70
2022-09-25T08:59:07.689Z,14.70
2022-09-25T09:02:14.988Z,14.70
2022-09-25T09:05:23.997Z,14.70
2022-09-25T09:08:31.021Z,14.70
2022-09-25T09:11:39.387Z,14.70
2022-09-25T09:14:47.595Z,14.80
2022-09-25T09:17:50.727Z,14.80
2022-09-25T09:20:56.436Z,14.80
2022-09-25T09:24:07.760Z,14.80
2022-09-25T09:27:39.981Z,14.80
2022-09-25T09:30:50.738Z,14.80
2022-09-25T09:34:00.941Z,14.90
2022-09-25T09:37:15.967Z,14.90
2022-09-25T09:40:28.123Z,14.90
2022-09-25T09:43:56.462Z,14.80
2022-09-25T09:47:09.118Z,14.80
2022-09-25T09:50:25.327Z,14.90
2022-09-25T09:53:34.198Z,15.00
2022-09-25T09:56:38.353Z,15.10
2022-09-25T09:59:47.246Z,15.30
2022-09-25T10:02:57.284Z,15.40
2022-09-25T10:06:02.783Z,15.70
2022-09-25T10:09:06.979Z,15.90
2022-09-25T10:12:16.634Z,16.10
2022-09-25T10:15:29.172Z,16.30
2022-09-25T10:18:40.982Z,16.50
2022-09-25T10:21:47.481Z,16.70
2022-09-25T10:24:53.951Z,16.80
2022-09-25T10:27:57.056Z,17.00
2022-09-25T10:31:01.966Z,17.10
2022-09-25T10:34:08.128Z,17.20
2022-09-25T10:37:21.205Z,17.30
2022-09-25T10:40:33.419Z,17.60
2022-09-25T10:43:36.858Z,17.80
2022-09-25T10:46:57.122Z,17.80
2022-09-25T10:50:14.224Z,17.80
2022-09-25T10:53:30.727Z,17.80
2022-09-25T10:56:39.049Z,17.80
2022-09-25T10:59:48.599Z,17.70
2022-09-25T11:02:54.771Z,17.60
2022-09-25T11:06:03.891Z,17.40
2022-09-25T11:09:13.701Z,17.20
2022-09-25T11:12:23.588Z,17.20
2022-09-25T11:15:28.585Z,17.30
2022-09-25T11:18:41.779Z,17.40
2022-09-25T11:22:00.162Z,17.80
2022-09-25T11:25:13.529Z,18.00
2022-09-25T11:28:22.125Z,18.20
2022-09-25T11:31:31.234Z,18.30
2022-09-25T11:34:53.062Z,18.60
2022-09-25T11:38:09.745Z,19.00
2022-09-25T11:41:23.113Z,19.00
2022-09-25T11:44:32.918Z,18.70
2022-09-25T11:47:44.663Z,18.30
2022-09-25T11:50:57.395Z,18.00
2022-09-25T11:54:37.603Z,17.60
2022-09-25T11:57:53.298Z,17.40
2022-09-25T12:01:03.704Z,17.20
2022-09-25T12:04:47.618Z,17.10
2022-09-25T12:08:15.565Z,17.00
2022-09-25T12:11:28.641Z,16.90
2022-09-25T12:14:40.969Z,17.00
2022-09-25T12:17:57.421Z,17.10
2022-09-25T12:21:06.268Z,17.20
2022-09-25T12:24:19.409Z,17.40
2022-09-25T12:27:37.720Z,17.60
2022-09-25T12:30:50.452Z,17.90
2022-09-25T12:33:59.095Z,18.20
2022-09-25T12:37:13.286Z,18.30
2022-09-25T12:40:24.223Z,18.30
2022-09-25T12:43:36.123Z,18.30
2022-09-25T12:46:44.660Z,18.30
2022-09-25T12:49:51.890Z,18.40
2022-09-25T12:52:58.572Z,18.60
2022-09-25T12:56:09.713Z,18.70
2022-09-25T12:59:18.583Z,18.70
2022-09-25T13:02:29.034Z,18.70
2022-09-25T13:05:36.255Z,18.80
2022-09-25T13:08:47.964Z,18.60
2022-09-25T13:11:57.400Z,18.70
2022-09-25T13:15:06.899Z,18.90
2022-09-25T13:18:22.646Z,19.00
2022-09-25T13:21:30.640Z,19.10
2022-09-25T13:24:40.749Z,19.00
2022-09-25T13:27:46.752Z,19.00
2022-09-25T13:31:10.126Z,18.90
2022-09-25T13:34:15.816Z,19.10
2022-09-25T13:37:19.041Z,19.10
2022-09-25T13:40:42.789Z,19.20
2022-09-25T13:43:49.552Z,19.20
2022-09-25T13:47:28.944Z,19.10
2022-09-25T13:50:37.978Z,19.10
2022-09-25T13:53:56.584Z,18.90
2022-09-25T13:56:59.653Z,18.70
2022-09-25T14:00:06.148Z,18.10
2022-09-25T14:03:31.866Z,18.10
2022-09-25T14:06:39.221Z,18.20
2022-09-25T14:09:47.780Z,18.20
2022-09-25T14:12:51.980Z,18.10
2022-09-25T14:15:58.465Z,18.10
2022-09-25T14:19:05.167Z,18.10
2022-09-25T14:22:19.077Z,17.90
2022-09-25T14:25:28.488Z,17.80
2022-09-25T14:28:36.206Z,17.90
2022-09-25T14:31:48.351Z,18.00
2022-09-25T14:35:18.725Z,18.20
2022-09-25T14:38:40.597Z,18.30
2022-09-25T14:42:03.020Z,18.30
2022-09-25T14:45:41.697Z,18.10
2022-09-25T14:48:48.717Z,18.10
2022-09-25T14:51:55.918Z,18.20
2022-09-25T14:55:00.875Z,18.20
2022-09-25T14:58:05.179Z,18.10
2022-09-25T15:01:17.959Z,17.90
2022-09-25T15:04:28.470Z,17.80
2022-09-25T15:07:33.412Z,17.70
2022-09-25T15:10:38.430Z,17.70
2022-09-25T15:13:42.404Z,17.70
2022-09-25T15:17:03.055Z,17.60
2022-09-25T15:20:08.951Z,17.50
2022-09-25T15:23:19.544Z,17.40
2022-09-25T15:26:23.334Z,17.20
2022-09-25T15:29:26.910Z,17.10
2022-09-25T15:32:38.364Z,17.00
2022-09-25T15:35:41.506Z,17.00
2022-09-25T15:38:52.963Z,16.90
2022-09-25T15:41:56.159Z,16.80
2022-09-25T15:45:03.728Z,16.80
2022-09-25T15:48:24.963Z,16.70
2022-09-25T15:51:32.206Z,16.30
2022-09-25T15:54:38.565Z,16.30
2022-09-25T15:57:42.698Z,16.20
2022-09-25T16:01:15.675Z,16.10
2022-09-25T16:04:39.245Z,16.00
2022-09-25T16:07:42.437Z,15.90
2022-09-25T16:10:50.071Z,15.80
2022-09-25T16:14:13.122Z,15.70
2022-09-25T16:17:26.019Z,15.80
2022-09-25T16:20:32.011Z,15.60
2022-09-25T16:23:35.128Z,15.60
2022-09-25T16:26:42.065Z,15.50
2022-09-25T16:29:46.146Z,15.40
2022-09-25T16:32:50.940Z,15.50
2022-09-25T16:36:16.135Z,15.40
2022-09-25T16:39:25.061Z,15.40
2022-09-25T16:42:39.467Z,15.40
2022-09-25T16:45:59.054Z,15.40
2022-09-25T16:49:04.883Z,15.40
2022-09-25T16:52:08.993Z,15.40
2022-09-25T16:55:22.737Z,15.40
2022-09-25T16:58:27.367Z,15.40
2022-09-25T17:01:30.524Z,15.30
2022-09-25T17:04:35.983Z,15.30
2022-09-25T17:07:39.417Z,15.30
2022-09-25T17:10:42.710Z,15.20
2022-09-25T17:36:22.494Z,15.00
2022-09-25T17:40:25.730Z,15.00
2022-09-25T18:14:23.405Z,15.00
2022-09-25T18:34:06.528Z,15.20
2022-09-25T18:37:10.300Z,15.10
2022-09-25T18:40:16.286Z,15.10
2022-09-25T18:43:21.187Z,15.10
2022-09-25T18:46:24.487Z,15.10
2022-09-25T18:49:28.826Z,15.10
2022-09-25T18:52:32.556Z,15.20
2022-09-25T18:55:35.682Z,15.20
2022-09-25T18:58:40.201Z,15.20
2022-09-25T19:01:44.197Z,15.20
2022-09-25T19:04:47.774Z,15.20
2022-09-25T19:07:52.284Z,15.10
2022-09-25T19:10:55.467Z,15.10
2022-09-25T19:14:04.756Z,15.10
2022-09-25T19:17:09.158Z,15.00
2022-09-25T19:20:12.262Z,15.10
2022-09-25T19:23:15.726Z,15.20
2022-09-25T19:26:22.396Z,15.20
2022-09-25T19:29:27.357Z,15.20
2022-09-25T19:32:30.576Z,15.30
2022-09-25T19:35:33.971Z,15.30
2022-09-25T19:38:40.538Z,15.30
2022-09-25T19:41:44.791Z,15.30
2022-09-25T19:44:50.382Z,15.30
2022-09-25T19:47:53.574Z,15.30
2022-09-25T19:50:57.093Z,15.30
2022-09-25T19:54:00.488Z,15.20
2022-09-25T19:57:03.627Z,15.10
2022-09-25T20:00:10.415Z,15.20
2022-09-25T20:03:13.666Z,15.20
2022-09-25T20:06:17.600Z,15.20
2022-09-25T20:09:20.716Z,15.20
2022-09-25T20:12:23.916Z,15.20
2022-09-25T20:15:29.262Z,15.20
2022-09-25T20:18:32.383Z,15.30
2022-09-25T20:21:37.696Z,15.30
2022-09-25T20:24:40.808Z,15.30
2022-09-25T20:27:43.949Z,15.40
2022-09-25T20:30:48.609Z,15.30
2022-09-25T20:33:52.040Z,15.40
2022-09-25T20:36:55.631Z,15.40
2022-09-25T20:39:58.885Z,15.40
2022-09-25T20:43:01.949Z,15.40
2022-09-25T20:46:08.347Z,15.40
2022-09-25T20:49:13.240Z,15.40
2022-09-25T20:52:16.568Z,15.30
2022-09-25T20:55:20.169Z,15.20
2022-09-25T20:58:23.367Z,15.20
2022-09-25T21:01:29.843Z,15.20
2022-09-25T21:04:33.438Z,15.20
2022-09-25T21:07:36.485Z,15.20
2022-09-25T21:10:40.463Z,15.30
2022-09-25T21:13:43.732Z,15.20
2022-09-25T21:16:49.270Z,15.10
2022-09-25T21:19:53.572Z,15.20
2022-09-25T21:22:56.666Z,15.20
2022-09-25T21:26:04.214Z,15.20
2022-09-25T21:29:08.158Z,15.20
2022-09-25T21:32:12.701Z,15.20
2022-09-25T21:35:15.857Z,15.20
2022-09-25T21:38:18.981Z,15.20
2022-09-25T21:41:24.279Z,15.20
2022-09-25T21:44:27.349Z,15.20
2022-09-25T21:47:31.801Z,15.20
2022-09-25T21:50:34.880Z,15.20
2022-09-25T21:53:38.268Z,15.10
2022-09-25T21:56:41.545Z,15.10
2022-09-25T21:59:44.645Z,15.00
2022-09-25T22:02:50.336Z,15.10
2022-09-25T22:05:59.739Z,15.00
2022-09-25T22:09:04.947Z,15.00
2022-09-25T22:12:08.505Z,15.00
2022-09-25T22:15:12.909Z,15.00
2022-09-25T22:18:17.484Z,15.00
2022-09-25T22:21:22.765Z,15.00
2022-09-25T22:24:26.404Z,15.00
2022-09-25T22:27:29.478Z,15.00
2022-09-25T22:30:32.865Z,15.00
2022-09-25T22:33:37.653Z,15.00
2022-09-25T22:36:40.879Z,15.00
2022-09-25T22:39:44.739Z,14.90
2022-09-25T22:42:47.812Z,14.90
2022-09-25T22:45:51.439Z,14.80
2022-09-25T22:48:55.961Z,14.50
2022-09-25T22:51:59.138Z,14.50
2022-09-25T22:55:02.249Z,14.50
2022-09-25T22:58:05.315Z,14.60
2022-09-25T23:01:12.123Z,14.60
2022-09-25T23:04:19.103Z,14.70
2022-09-25T23:07:22.355Z,14.70
2022-09-25T23:10:25.485Z,14.70
2022-09-25T23:13:28.992Z,14.80
2022-09-25T23:16:33.499Z,14.80
2022-09-25T23:19:38.001Z,14.80
2022-09-25T23:22:41.146Z,14.80
2022-09-25T23:25:46.558Z,14.80
2022-09-25T23:28:49.619Z,14.80
2022-09-25T23:31:53.200Z,14.80
2022-09-25T23:34:57.668Z,14.70
2022-09-25T23:38:00.816Z,14.60
2022-09-25T23:41:13.444Z,14.60
2022-09-25T23:44:16.537Z,14.60
2022-09-25T23:47:19.752Z,14.40
2022-09-25T23:50:24.225Z,14.30
2022-09-25T23:53:27.321Z,14.30
2022-09-25T23:56:33.057Z,14.30
2022-09-25T23:59:36.181Z,14.40
